Time;durP1;ratioP1;P1;durP2;ratioP2;P2;SDS_P1;SDS_P2;PMS_P1;PMS_P2;Temp;Humidity;BMP_temperature;BMP_pressure;BME280_temperature;BME280_humidity;BME280_pressure;Samples;Min_cycle;Max_cycle;Signal;HPM_P1;HPM_P2
2022/05/18 00:00:14;;;;;;;;;;;;;;;14.28;61.69;101588.28;4960891;28;3938;-93
2022/05/18 00:02:41;;;;;;;;;;;;;;;14.27;61.76;101586.63;4969114;28;2895;-91
2022/05/18 00:05:07;;;;;;;;;;;;;;;14.25;61.60;101583.31;4954236;28;2450;-93
2022/05/18 00:07:34;;;;;;;;;;;;;;;14.24;61.71;101578.94;4976066;28;2544;-93
2022/05/18 00:10:00;;;;;;;;;;;;;;;14.24;61.54;101583.53;4952392;28;4964;-93
2022/05/18 00:12:26;;;;;;;;;;;;;;;14.23;61.69;101584.56;4975972;28;1572;-93
2022/05/18 00:14:53;;;;;;;;;;;;;;;14.22;61.51;101588.34;4955268;28;2181;-93
2022/05/18 00:17:19;;;;;;;;;;;;;;;14.20;61.63;101583.13;4961744;28;1919;-93
2022/05/18 00:19:45;;;;;;;;;;;;;;;14.19;61.64;101584.19;4949990;28;5042;-93
2022/05/18 00:22:12;;;;;;;;;;;;;;;14.17;61.65;101580.84;4960263;28;2076;-93
2022/05/18 00:24:38;;;;;;;;;;;;;;;14.17;61.50;101585.44;4956820;28;3835;-92
2022/05/18 00:27:05;;;;;;;;;;;;;;;14.15;61.60;101582.09;4960857;28;1754;-93
2022/05/18 00:29:31;;;;;;;;;;;;;;;14.14;61.55;101585.88;4957393;28;2432;-93
2022/05/18 00:31:57;;;;;;;;;;;;;;;14.13;61.35;101576.09;4944880;28;1391;-93
2022/05/18 00:34:23;;;;;;;;;;;;;;;14.11;61.51;101578.19;4950740;28;3047;-93
2022/05/18 00:36:50;;;;;;;;;;;;;;;14.11;61.36;101591.72;4959996;28;2314;-93
2022/05/18 00:39:16;;;;;;;;;;;;;;;14.08;61.43;101591.09;4950796;28;5052;-93
2022/05/18 00:41:43;;;;;;;;;;;;;;;14.06;61.33;101590.53;4959944;28;4007;-93
2022/05/18 00:44:09;;;;;;;;;;;;;;;14.05;61.50;101583.41;4962485;28;2288;-93
2022/05/18 00:46:35;;;;;;;;;;;;;;;14.04;61.42;101589.91;4949778;28;1803;-93
2022/05/18 00:49:02;;;;;;;;;;;;;;;14.03;61.43;101585.53;4970905;28;2751;-93
2022/05/18 00:51:28;;;;;;;;;;;;;;;14.02;61.30;101588.44;4976783;28;2046;-93
2022/05/18 00:53:54;;;;;;;;;;;;;;;14.00;61.40;101588.69;4951785;28;4396;-93
2022/05/18 00:56:20;;;;;;;;;;;;;;;13.99;61.19;101587.00;4952526;28;5132;-93
2022/05/18 00:58:47;;;;;;;;;;;;;;;13.98;61.31;101588.06;4978827;28;3874;-92
2022/05/18 01:01:13;;;;;;;;;;;;;;;13.97;61.23;101596.38;4962876;28;1524;-93
2022/05/18 01:03:40;;;;;;;;;;;;;;;13.94;61.23;101592.25;4971739;28;2887;-93
2022/05/18 01:06:14;;;;;;;;;;;;;;;13.94;61.24;101586.84;4963493;28;2007;-92
2022/05/18 01:08:40;;;;;;;;;;;;;;;13.92;61.13;101594.34;4956996;28;4883;-93
2022/05/18 01:11:06;;;;;;;;;;;;;;;13.91;61.09;101592.66;4947466;28;3962;-93
2022/05/18 01:13:32;;;;;;;;;;;;;;;13.90;61.26;101590.19;4955083;28;2268;-93
2022/05/18 01:15:59;;;;;;;;;;;;;;;13.88;61.16;101598.50;4944757;28;2589;-92
2022/05/18 01:18:25;;;;;;;;;;;;;;;13.88;61.04;101595.81;4953701;28;2797;-93
2022/05/18 01:20:51;;;;;;;;;;;;;;;13.85;60.97;101602.50;4958581;28;2053;-93
2022/05/18 01:23:18;;;;;;;;;;;;;;;13.84;60.98;101600.00;4951867;28;4432;-93
2022/05/18 01:25:44;;;;;;;;;;;;;;;13.82;60.94;101600.25;4967395;28;5050;-92
2022/05/18 01:28:10;;;;;;;;;;;;;;;13.82;60.87;101599.38;4974969;28;2469;-93
2022/05/18 01:30:37;;;;;;;;;;;;;;;13.80;61.00;101607.75;4959911;28;4073;-93
2022/05/18 01:33:03;;;;;;;;;;;;;;;13.79;60.89;101602.53;4956621;28;2742;-92
2022/05/18 01:35:30;;;;;;;;;;;;;;;13.76;61.10;101603.78;4959010;28;2059;-93
2022/05/18 01:37:57;;;;;;;;;;;;;;;13.76;60.98;101602.94;4954344;28;5062;-93
2022/05/18 01:40:23;;;;;;;;;;;;;;;13.75;60.84;101614.84;4960946;28;4216;-93
2022/05/18 01:42:50;;;;;;;;;;;;;;;13.73;60.93;101603.38;4990090;28;2923;-92
2022/05/18 01:45:16;;;;;;;;;;;;;;;13.71;60.78;101606.31;4959522;28;3926;-93
2022/05/18 01:47:42;;;;;;;;;;;;;;;13.70;60.67;101601.94;4955169;28;2510;-92
2022/05/18 01:50:08;;;;;;;;;;;;;;;13.70;60.84;101606.53;4965923;28;1824;-93
2022/05/18 01:52:35;;;;;;;;;;;;;;;13.67;60.65;101599.66;4957541;28;2863;-92
2022/05/18 01:55:01;;;;;;;;;;;;;;;13.66;60.77;101603.41;4951892;28;5255;-93
2022/05/18 01:57:27;;;;;;;;;;;;;;;13.64;60.80;101603.63;4979909;28;1978;-93
2022/05/18 01:59:54;;;;;;;;;;;;;;;13.64;60.64;101597.38;4958116;28;3899;-93
2022/05/18 02:02:22;;;;;;;;;;;;;;;13.61;60.65;101592.41;4956667;28;1262;-93
2022/05/18 02:04:49;;;;;;;;;;;;;;;13.60;60.59;101593.47;4954901;28;2797;-93
2022/05/18 02:07:15;;;;;;;;;;;;;;;13.59;60.48;101595.34;4971545;28;1763;-93
2022/05/18 02:09:41;;;;;;;;;;;;;;;13.58;60.64;101600.94;4961398;28;4949;-93
2022/05/18 02:12:08;;;;;;;;;;;;;;;13.55;60.42;101602.19;4943552;28;1296;-92
2022/05/18 02:14:34;;;;;;;;;;;;;;;13.55;60.35;101601.38;4957536;28;2123;-92
2022/05/18 02:17:00;;;;;;;;;;;;;;;13.54;60.68;101599.72;4974161;28;1678;-93
2022/05/18 02:19:27;;;;;;;;;;;;;;;13.51;60.35;101592.88;4952785;28;2773;-93
2022/05/18 02:21:53;;;;;;;;;;;;;;;13.50;60.47;101603.88;4958579;28;2087;-93
2022/05/18 02:24:19;;;;;;;;;;;;;;;13.49;60.33;101594.13;4962228;28;4482;-93
2022/05/18 02:26:46;;;;;;;;;;;;;;;13.46;60.40;101595.38;4956098;28;5207;-92
2022/05/18 02:29:12;;;;;;;;;;;;;;;13.45;60.25;101587.47;4956699;28;4126;-93
2022/05/18 02:31:38;;;;;;;;;;;;;;;13.44;60.32;101585.81;4973006;28;1294;-93
2022/05/18 02:34:05;;;;;;;;;;;;;;;13.41;60.38;101584.34;4961118;28;5063;-93
2022/05/18 02:36:31;;;;;;;;;;;;;;;13.40;60.13;101583.53;4943097;28;3941;-93
2022/05/18 02:38:57;;;;;;;;;;;;;;;13.38;60.20;101587.47;4973301;28;2276;-93
2022/05/18 02:41:24;;;;;;;;;;;;;;;13.37;60.42;101585.81;4943086;28;1300;-93
2022/05/18 02:43:51;;;;;;;;;;;;;;;13.36;60.12;101586.88;4953963;28;2287;-93
2022/05/18 02:46:18;;;;;;;;;;;;;;;13.33;60.27;101582.72;4943077;28;1216;-93
2022/05/18 02:48:45;;;;;;;;;;;;;;;13.32;60.25;101588.34;4970875;28;2955;-93
2022/05/18 02:51:11;;;;;;;;;;;;;;;13.31;60.16;101582.09;4958816;28;1325;-93
2022/05/18 02:53:37;;;;;;;;;;;;;;;13.18;60.13;101571.31;4948710;28;4324;-92
2022/05/18 02:56:06;;;;;;;;;;;;;;;13.28;59.94;101589.81;4951967;28;1933;-93
2022/05/18 02:58:32;;;;;;;;;;;;;;;13.27;60.14;101586.28;4938999;28;4932;-93
2022/05/18 03:00:59;;;;;;;;;;;;;;;13.26;60.04;101586.47;4947700;28;3979;-93
2022/05/18 03:03:25;;;;;;;;;;;;;;;13.24;59.98;101585.84;4965050;28;2279;-93
2022/05/18 03:05:52;;;;;;;;;;;;;;;13.22;59.97;101585.22;4957545;28;3831;-92
2022/05/18 03:08:18;;;;;;;;;;;;;;;13.19;59.84;101579.19;4944702;28;4953;-93
2022/05/18 03:10:44;;;;;;;;;;;;;;;13.18;59.88;101582.13;4950415;28;4227;-91
2022/05/18 03:13:11;;;;;;;;;;;;;;;13.17;60.04;101581.25;4969459;28;3643;-93
2022/05/18 03:15:37;;;;;;;;;;;;;;;13.16;59.91;101581.50;4954379;28;2205;-93
2022/05/18 03:18:03;;;;;;;;;;;;;;;13.14;60.16;101578.16;4951225;28;4216;-93
2022/05/18 03:25:57;;;;;;;;;;;;;;;13.09;59.66;101583.41;4959366;28;3810;-92
2022/05/18 03:28:24;;;;;;;;;;;;;;;13.08;59.78;101573.59;4967138;28;2857;-93
2022/05/18 03:30:50;;;;;;;;;;;;;;;13.07;59.76;101577.34;4955908;28;2083;-93
2022/05/18 03:33:17;;;;;;;;;;;;;;;13.05;59.98;101571.31;4966724;28;4901;-93
2022/05/18 03:35:43;;;;;;;;;;;;;;;13.03;59.95;101576.94;4965912;28;4304;-92
2022/05/18 03:38:09;;;;;;;;;;;;;;;13.01;59.84;101576.31;4972091;28;2815;-92
2022/05/18 03:40:37;;;;;;;;;;;;;;;13.00;59.90;101584.63;4954565;28;4260;-92
2022/05/18 03:43:03;;;;;;;;;;;;;;;12.98;59.98;101576.75;4953944;28;2431;-93
2022/05/18 03:45:30;;;;;;;;;;;;;;;12.98;59.95;101586.72;4955311;28;1885;-92
2022/05/18 03:47:56;;;;;;;;;;;;;;;12.96;59.76;101574.22;4972399;28;4942;-92
2022/05/18 03:50:22;;;;;;;;;;;;;;;12.94;59.88;101573.63;4944488;28;4049;-92
2022/05/18 03:52:49;;;;;;;;;;;;;;;12.93;59.85;101577.38;4960621;28;2201;-92
2022/05/18 03:55:15;;;;;;;;;;;;;;;12.92;59.83;101570.31;4975567;28;3858;-92
2022/05/18 03:57:41;;;;;;;;;;;;;;;12.91;59.89;101573.19;4959538;28;2780;-92
2022/05/18 04:00:08;;;;;;;;;;;;;;;12.88;59.86;101571.78;4960056;28;2384;-92
2022/05/18 04:02:34;;;;;;;;;;;;;;;12.87;59.84;101578.22;4970308;28;2806;-92
2022/05/18 04:05:01;;;;;;;;;;;;;;;12.86;59.61;101575.72;4944220;28;4965;-92
2022/05/18 04:07:27;;;;;;;;;;;;;;;12.85;59.78;101577.59;4943163;28;1300;-92
2022/05/18 04:09:53;;;;;;;;;;;;;;;12.83;59.89;101576.16;4958397;28;3979;-92
2022/05/18 04:12:20;;;;;;;;;;;;;;;12.81;59.84;101579.03;4963897;28;1584;-91
2022/05/18 04:14:46;;;;;;;;;;;;;;;12.81;59.81;101572.81;4963681;28;2744;-92
2022/05/18 04:17:13;;;;;;;;;;;;;;;12.80;59.66;101572.00;4942828;28;1294;-92
2022/05/18 04:19:39;;;;;;;;;;;;;;;12.79;59.65;101573.00;4950733;28;4842;-92
2022/05/18 04:22:06;;;;;;;;;;;;;;;12.78;59.66;101579.47;4961071;28;1861;-92
2022/05/18 04:24:33;;;;;;;;;;;;;;;12.78;59.70;101581.34;4950461;28;2282;-92
2022/05/18 04:26:59;;;;;;;;;;;;;;;12.77;59.78;101577.00;4961123;28;1316;-92
2022/05/18 04:29:26;;;;;;;;;;;;;;;12.76;59.75;101586.13;4951471;28;4904;-92
2022/05/18 04:31:52;;;;;;;;;;;;;;;12.75;59.78;101574.47;4960399;28;3945;-92
2022/05/18 04:34:18;;;;;;;;;;;;;;;12.75;59.68;101570.94;4959558;28;2585;-91
2022/05/18 04:36:45;;;;;;;;;;;;;;;12.73;59.69;101576.56;4975644;28;3208;-92
2022/05/18 04:39:11;;;;;;;;;;;;;;;12.72;59.53;101574.91;4948261;28;5022;-92
2022/05/18 04:41:37;;;;;;;;;;;;;;;12.72;59.48;101585.72;4968197;28;3922;-92
2022/05/18 04:44:04;;;;;;;;;;;;;;;12.70;59.65;101588.59;4957365;28;4013;-92
2022/05/18 04:46:30;;;;;;;;;;;;;;;12.68;59.68;101590.72;4960574;28;1361;-92
2022/05/18 04:48:57;;;;;;;;;;;;;;;12.69;59.59;101588.84;4963781;28;2748;-92
2022/05/18 04:51:23;;;;;;;;;;;;;;;12.67;59.52;101590.91;4977432;28;1722;-92
2022/05/18 04:53:49;;;;;;;;;;;;;;;12.65;59.51;101593.84;4949660;28;5107;-92
2022/05/18 04:56:16;;;;;;;;;;;;;;;12.65;59.67;101590.31;4962772;28;4079;-92
2022/05/18 04:58:42;;;;;;;;;;;;;;;12.65;59.53;101595.72;4975563;28;2875;-92
2022/05/18 05:01:09;;;;;;;;;;;;;;;12.63;59.61;101593.19;4959426;28;1374;-93
2022/05/18 05:03:35;;;;;;;;;;;;;;;12.62;59.51;101594.25;4941284;28;4231;-92
2022/05/18 05:06:01;;;;;;;;;;;;;;;12.62;59.32;101599.66;4950009;28;4218;-93
2022/05/18 05:08:28;;;;;;;;;;;;;;;12.61;59.26;101591.75;4946816;28;2297;-93
2022/05/18 05:10:54;;;;;;;;;;;;;;;12.60;59.40;101592.78;4957526;28;3902;-92
2022/05/18 05:13:20;;;;;;;;;;;;;;;12.60;59.19;101587.38;4951991;28;2955;-92
2022/05/18 05:15:51;;;;;;;;;;;;;;;12.58;59.29;101586.75;4950718;28;4832;-93
2022/05/18 05:18:17;;;;;;;;;;;;;;;12.57;59.24;101588.63;4958994;28;2221;-93
2022/05/18 05:20:44;;;;;;;;;;;;;;;12.56;59.24;101586.97;4957687;28;1636;-92
2022/05/18 05:23:10;;;;;;;;;;;;;;;12.55;59.23;101585.28;4969430;28;4676;-91
2022/05/18 05:25:37;;;;;;;;;;;;;;;12.55;59.14;101585.28;4943515;28;4718;-90
2022/05/18 05:28:03;;;;;;;;;;;;;;;12.55;59.24;101590.69;4942297;28;2600;-91
2022/05/18 05:30:29;;;;;;;;;;;;;;;12.54;59.23;101586.34;4955580;28;4355;-91
2022/05/18 05:32:56;;;;;;;;;;;;;;;12.53;59.32;101573.88;4951631;28;4938;-91
2022/05/18 05:35:22;;;;;;;;;;;;;;;12.52;59.18;101580.31;4942890;29;4144;-90
2022/05/18 05:37:48;;;;;;;;;;;;;;;12.52;59.14;101579.47;4959428;28;2807;-90
2022/05/18 05:40:16;;;;;;;;;;;;;;;12.51;59.08;101578.66;4957501;28;4036;-91
2022/05/18 05:42:42;;;;;;;;;;;;;;;12.49;59.09;101575.31;4940168;28;2574;-90
2022/05/18 05:45:09;;;;;;;;;;;;;;;12.48;58.99;101573.66;4969108;28;1810;-90
2022/05/18 05:47:35;;;;;;;;;;;;;;;12.47;58.92;101578.25;4958269;28;2802;-91
2022/05/18 05:50:01;;;;;;;;;;;;;;;12.48;58.79;101577.19;4967167;28;5359;-90
2022/05/18 05:52:28;;;;;;;;;;;;;;;12.46;58.79;101579.25;4976396;28;1395;-90
2022/05/18 05:54:54;;;;;;;;;;;;;;;12.46;58.88;101570.31;4956207;28;4034;-90
2022/05/18 05:57:20;;;;;;;;;;;;;;;12.46;58.73;101576.56;4961974;28;2280;-90
2022/05/18 05:59:46;;;;;;;;;;;;;;;12.46;58.58;101578.44;4971285;28;2173;-92
2022/05/18 06:02:15;;;;;;;;;;;;;;;12.45;58.57;101577.59;4950147;28;1670;-92
2022/05/18 06:04:42;;;;;;;;;;;;;;;12.44;58.50;101575.09;4944749;28;5183;-90
2022/05/18 06:07:09;;;;;;;;;;;;;;;12.45;58.58;101576.78;4957427;28;2286;-90
2022/05/18 06:09:35;;;;;;;;;;;;;;;12.44;58.57;101567.00;4953310;28;4093;-90
2022/05/18 06:12:02;;;;;;;;;;;;;;;12.43;58.37;101574.28;4958346;28;1279;-92
2022/05/18 06:14:28;;;;;;;;;;;;;;;12.43;58.65;101568.03;4972159;28;2531;-90
2022/05/18 06:16:54;;;;;;;;;;;;;;;12.42;58.35;101572.63;4975619;28;2055;-90
2022/05/18 06:19:20;;;;;;;;;;;;;;;12.42;58.27;101566.38;4930751;28;4980;-90
2022/05/18 06:21:47;;;;;;;;;;;;;;;12.41;58.41;101565.56;4946196;28;3997;-90
2022/05/18 06:24:14;;;;;;;;;;;;;;;12.40;58.43;101563.06;4960934;28;4032;-90
2022/05/18 06:26:40;;;;;;;;;;;;;;;12.40;58.31;101566.56;4957622;28;1425;-90
2022/05/18 06:29:06;;;;;;;;;;;;;;;12.39;58.27;101561.41;4972906;28;2256;-90
2022/05/18 06:31:33;;;;;;;;;;;;;;;12.39;58.23;101570.34;4989181;28;1375;-92
2022/05/18 06:33:59;;;;;;;;;;;;;;;12.40;58.23;101563.88;4944181;28;2830;-92
2022/05/18 06:36:26;;;;;;;;;;;;;;;12.39;58.03;101566.81;4967903;28;4791;-92
2022/05/18 06:38:52;;;;;;;;;;;;;;;12.39;58.25;101573.03;4957857;28;5071;-92
2022/05/18 06:41:25;;;;;;;;;;;;;;;12.38;58.03;101565.97;4951128;29;2483;-92
2022/05/18 06:43:51;;;;;;;;;;;;;;;12.38;58.01;101567.81;4959273;28;1888;-92
2022/05/18 06:46:17;;;;;;;;;;;;;;;12.38;58.04;101557.00;4956224;28;2413;-91
2022/05/18 06:48:44;;;;;;;;;;;;;;;12.37;58.06;101556.19;4946536;28;5004;-92
2022/05/18 06:51:10;;;;;;;;;;;;;;;12.36;57.77;101559.94;4957806;28;1969;-92
2022/05/18 06:53:38;;;;;;;;;;;;;;;12.38;57.85;101557.00;4975323;28;1759;-92
2022/05/18 06:56:05;;;;;;;;;;;;;;;12.37;57.81;101552.66;4974834;28;4479;-92
2022/05/18 06:58:31;;;;;;;;;;;;;;;12.39;57.58;101553.28;4952629;28;4895;-92
2022/05/18 07:01:00;;;;;;;;;;;;;;;12.38;57.77;101549.78;4950181;28;4174;-91
2022/05/18 07:03:27;;;;;;;;;;;;;;;12.37;57.74;101552.66;4958150;28;2070;-92
2022/05/18 07:05:53;;;;;;;;;;;;;;;12.37;57.55;101552.66;4944386;28;1444;-91
2022/05/18 07:08:20;;;;;;;;;;;;;;;12.38;57.51;101551.63;4954446;28;2262;-90
2022/05/18 07:10:46;;;;;;;;;;;;;;;12.35;57.72;101547.44;4956805;29;985;-90
2022/05/18 07:13:17;;;;;;;;;;;;;;;12.35;57.40;101541.22;4939620;28;4920;-90
2022/05/18 07:15:43;;;;;;;;;;;;;;;12.35;57.57;101538.53;4957307;28;4083;-90
2022/05/18 07:18:09;;;;;;;;;;;;;;;12.35;57.44;101538.53;4956353;28;2198;-91
2022/05/18 07:20:36;;;;;;;;;;;;;;;12.37;57.62;101544.56;4940935;29;1911;-91
2022/05/18 07:23:03;;;;;;;;;;;;;;;12.36;57.31;101537.50;4942641;28;4179;-90
2022/05/18 07:25:29;;;;;;;;;;;;;;;12.35;57.37;101539.34;4952344;29;5088;-90
2022/05/18 07:27:56;;;;;;;;;;;;;;;12.35;57.57;101536.66;4962331;28;1976;-91
2022/05/18 07:30:22;;;;;;;;;;;;;;;12.35;57.41;101539.34;4951384;28;4004;-90
2022/05/18 07:32:49;;;;;;;;;;;;;;;12.35;57.41;101538.53;4960941;28;2228;-89
2022/05/18 07:35:15;;;;;;;;;;;;;;;12.36;57.46;101532.09;4970679;28;2575;-90
2022/05/18 07:37:42;;;;;;;;;;;;;;;12.35;57.36;101542.06;4958973;28;3946;-91
2022/05/18 07:40:08;;;;;;;;;;;;;;;12.36;57.60;101538.31;4956016;28;5046;-90
2022/05/18 07:42:35;;;;;;;;;;;;;;;12.35;57.42;101533.94;4959130;28;2096;-90
2022/05/18 07:45:02;;;;;;;;;;;;;;;12.35;57.43;101533.13;4951540;28;1323;-90
2022/05/18 07:47:28;;;;;;;;;;;;;;;12.35;57.58;101531.25;4966211;28;1710;-90
2022/05/18 07:49:55;;;;;;;;;;;;;;;12.35;57.55;101531.25;4969448;28;2189;-91
2022/05/18 07:52:22;;;;;;;;;;;;;;;12.36;57.55;101532.09;4958734;29;1162;-91
2022/05/18 07:54:48;;;;;;;;;;;;;;;12.37;57.62;101533.75;4969762;28;4248;-90
2022/05/18 07:57:15;;;;;;;;;;;;;;;12.39;57.22;101532.50;4969271;28;1417;-91
2022/05/18 07:59:41;;;;;;;;;;;;;;;12.38;57.35;101527.31;4969606;28;3870;-91
2022/05/18 08:02:07;;;;;;;;;;;;;;;12.36;57.50;101534.81;4959750;28;1242;-91
2022/05/18 08:04:34;;;;;;;;;;;;;;;12.37;57.44;101533.75;4952588;28;2275;-90
2022/05/18 08:07:00;;;;;;;;;;;;;;;12.35;57.54;101525.00;4970072;28;1008;-91
2022/05/18 08:09:27;;;;;;;;;;;;;;;12.37;57.43;101522.94;4972481;28;4311;-91
2022/05/18 08:17:34;;;;;;;;;;;;;;;12.40;57.54;101515.25;4964917;28;1816;-93
2022/05/18 08:20:01;;;;;;;;;;;;;;;12.40;57.42;101515.25;4937640;28;2575;-92
2022/05/18 08:22:28;;;;;;;;;;;;;;;12.39;57.61;101505.50;4957207;28;1246;-92
2022/05/18 08:24:54;;;;;;;;;;;;;;;12.40;57.57;101503.63;4965426;28;4289;-91
2022/05/18 08:27:21;;;;;;;;;;;;;;;12.43;57.49;101503.19;4961416;28;1153;-92
2022/05/18 08:29:47;;;;;;;;;;;;;;;12.45;57.58;101510.06;4970188;28;1979;-91
2022/05/18 08:32:14;;;;;;;;;;;;;;;12.45;57.34;101506.53;4959865;28;1308;-91
2022/05/18 08:34:40;;;;;;;;;;;;;;;12.48;57.46;101516.91;4953511;28;2748;-90
2022/05/18 08:37:07;;;;;;;;;;;;;;;12.47;57.42;101524.19;4964525;28;1008;-91
2022/05/18 08:39:33;;;;;;;;;;;;;;;12.48;57.42;101514.22;4968537;28;3738;-91
2022/05/18 08:42:01;;;;;;;;;;;;;;;12.48;57.46;101517.75;4957648;29;1183;-91
2022/05/18 08:44:28;;;;;;;;;;;;;;;12.47;57.46;101518.78;4969721;28;1662;-91
2022/05/18 08:46:55;;;;;;;;;;;;;;;12.46;57.43;101510.88;4945517;28;1256;-91
2022/05/18 08:49:21;;;;;;;;;;;;;;;12.49;57.32;101529.38;4967912;28;2367;-91
2022/05/18 08:51:48;;;;;;;;;;;;;;;12.53;57.29;101519.84;4975443;28;1042;-91
2022/05/18 08:54:14;;;;;;;;;;;;;;;12.55;57.40;101519.63;4949991;28;4248;-91
2022/05/18 08:56:41;;;;;;;;;;;;;;;12.54;57.41;101517.97;4948788;28;4359;-91
2022/05/18 08:59:07;;;;;;;;;;;;;;;12.56;57.46;101515.84;4969157;28;4328;-91
2022/05/18 09:01:35;;;;;;;;;;;;;;;12.57;57.41;101528.34;4966954;28;1985;-92
2022/05/18 09:04:02;;;;;;;;;;;;;;;12.57;57.43;101523.78;4968576;28;2193;-92
2022/05/18 09:06:28;;;;;;;;;;;;;;;12.58;57.21;101525.41;4977747;28;969;-92
2022/05/18 09:11:35;;;;;;;;;;;;;;;12.58;57.31;101521.91;4940626;29;1351;-92
2022/05/18 09:14:02;;;;;;;;;;;;;;;12.57;57.31;101523.78;4959347;28;4992;-91
2022/05/18 09:16:29;;;;;;;;;;;;;;;12.59;57.34;101518.13;4959658;28;2514;-91
2022/05/18 09:18:55;;;;;;;;;;;;;;;12.58;57.42;101513.78;4960703;28;2182;-91
2022/05/18 09:21:23;;;;;;;;;;;;;;;12.60;57.43;101509.00;4968598;28;2747;-92
2022/05/18 09:23:49;;;;;;;;;;;;;;;12.58;57.36;101501.09;4964394;28;4116;-90
2022/05/18 09:26:16;;;;;;;;;;;;;;;12.61;57.33;101503.38;4958034;28;1229;-92
2022/05/18 09:28:43;;;;;;;;;;;;;;;12.61;57.33;101500.69;4953552;28;5212;-92
2022/05/18 09:31:09;;;;;;;;;;;;;;;12.62;57.36;101498.84;4964360;28;1599;-92
2022/05/18 09:33:36;;;;;;;;;;;;;;;12.62;57.27;101504.25;4959347;28;1849;-92
2022/05/18 09:36:03;;;;;;;;;;;;;;;12.61;57.45;101491.75;4945326;28;1270;-91
2022/05/18 09:38:29;;;;;;;;;;;;;;;12.63;57.27;101495.06;4971136;28;2870;-92
2022/05/18 09:40:56;;;;;;;;;;;;;;;12.64;57.36;101497.56;4948423;28;2166;-91
2022/05/18 09:43:24;;;;;;;;;;;;;;;12.63;57.37;101492.38;4953229;28;2357;-92
2022/05/18 09:45:50;;;;;;;;;;;;;;;12.63;57.48;101498.59;4956897;28;2199;-91
2022/05/18 09:48:17;;;;;;;;;;;;;;;12.65;57.38;101493.84;4964801;28;4488;-92
2022/05/18 09:50:44;;;;;;;;;;;;;;;12.65;57.34;101487.59;4964619;28;5066;-92
2022/05/18 09:53:10;;;;;;;;;;;;;;;12.66;57.51;101473.03;4965600;28;2203;-92
2022/05/18 09:55:37;;;;;;;;;;;;;;;12.64;57.53;101464.31;4955738;28;3078;-91
2022/05/18 09:58:03;;;;;;;;;;;;;;;12.65;57.41;101464.09;4957834;28;2151;-91
2022/05/18 10:00:30;;;;;;;;;;;;;;;12.66;57.55;101465.75;4954819;28;1915;-91
2022/05/18 10:08:25;;;;;;;;;;;;;;;12.68;57.56;101458.28;4959427;28;2519;-90
2022/05/18 10:10:51;;;;;;;;;;;;;;;12.69;57.56;101459.94;4966484;28;1336;-91
2022/05/18 10:13:18;;;;;;;;;;;;;;;12.71;57.66;101452.44;4957751;28;2345;-91
2022/05/18 10:15:45;;;;;;;;;;;;;;;12.71;57.66;101448.91;4971083;28;1981;-92
2022/05/18 10:18:11;;;;;;;;;;;;;;;12.73;57.68;101453.06;4959780;28;3950;-91
2022/05/18 10:20:40;;;;;;;;;;;;;;;12.73;57.61;101436.00;4961153;28;2013;-91
2022/05/18 10:23:06;;;;;;;;;;;;;;;12.73;57.47;101427.88;4956299;28;2341;-92
2022/05/18 10:25:33;;;;;;;;;;;;;;;12.74;57.70;101434.97;4954969;28;2212;-91
2022/05/18 10:27:59;;;;;;;;;;;;;;;12.75;57.55;101431.22;4963820;28;2737;-91
2022/05/18 10:30:28;;;;;;;;;;;;;;;12.76;57.68;101432.03;4957982;28;1701;-91
2022/05/18 10:32:55;;;;;;;;;;;;;;;12.77;57.71;101425.63;4953160;28;4211;-90
2022/05/18 10:35:21;;;;;;;;;;;;;;;12.78;57.70;101440.78;4954961;28;3888;-91
2022/05/18 10:37:48;;;;;;;;;;;;;;;12.79;57.73;101428.91;4958194;28;3695;-92
2022/05/18 10:40:15;;;;;;;;;;;;;;;12.80;57.54;101436.81;4964217;28;5472;-91
2022/05/18 10:42:41;;;;;;;;;;;;;;;12.81;57.77;101432.25;4964684;28;2233;-91
2022/05/18 10:45:08;;;;;;;;;;;;;;;12.81;57.68;101424.97;4954466;28;1750;-91
2022/05/18 10:47:34;;;;;;;;;;;;;;;12.83;57.71;101430.16;4957296;28;2400;-90
2022/05/18 10:50:01;;;;;;;;;;;;;;;12.83;57.63;101422.06;4945423;28;3565;-91
2022/05/18 10:52:28;;;;;;;;;;;;;;;12.84;57.77;101418.31;4944206;28;2079;-91
2022/05/18 10:54:55;;;;;;;;;;;;;;;12.83;57.58;101405.84;4970000;28;2763;-91
2022/05/18 10:57:21;;;;;;;;;;;;;;;12.84;57.71;101399.38;4962803;28;2006;-92
2022/05/18 10:59:48;;;;;;;;;;;;;;;12.84;57.58;101404.78;4967335;28;5019;-91
2022/05/18 11:02:14;;;;;;;;;;;;;;;12.85;57.69;101415.41;4961533;28;2000;-91
2022/05/18 11:04:41;;;;;;;;;;;;;;;12.85;57.59;101406.44;4959472;28;2271;-91
2022/05/18 11:07:07;;;;;;;;;;;;;;;12.85;57.82;101393.78;4961521;28;4253;-91
2022/05/18 11:09:34;;;;;;;;;;;;;;;12.86;57.59;101400.81;4968621;28;4338;-91
2022/05/18 11:12:00;;;;;;;;;;;;;;;12.86;57.59;101395.41;4976501;28;2063;-91
2022/05/18 11:14:27;;;;;;;;;;;;;;;12.89;57.70;101391.47;4976056;28;2370;-92
2022/05/18 11:16:53;;;;;;;;;;;;;;;12.88;57.55;101382.53;4957289;28;1905;-92
2022/05/18 11:19:20;;;;;;;;;;;;;;;12.90;57.81;101376.88;4965495;28;5073;-91
2022/05/18 11:21:46;;;;;;;;;;;;;;;12.90;57.74;101376.88;4954110;29;2013;-91
2022/05/18 11:24:14;;;;;;;;;;;;;;;12.89;57.80;101383.34;4947261;28;2086;-91
2022/05/18 11:26:41;;;;;;;;;;;;;;;12.90;57.81;101380.41;4957287;28;2247;-91
2022/05/18 11:29:07;;;;;;;;;;;;;;;12.93;57.61;101368.34;4944505;28;4153;-93
2022/05/18 11:31:34;;;;;;;;;;;;;;;12.95;57.69;101371.69;4956486;28;3705;-92
2022/05/18 11:34:00;;;;;;;;;;;;;;;12.93;57.54;101371.06;4951219;28;2061;-93
2022/05/18 11:36:27;;;;;;;;;;;;;;;12.90;57.77;101366.91;4967419;28;1175;-93
2022/05/18 11:38:53;;;;;;;;;;;;;;;12.87;57.71;101364.63;4954606;28;2487;-92
2022/05/18 11:41:20;;;;;;;;;;;;;;;12.88;57.86;101360.91;4977587;28;2005;-92
2022/05/18 11:43:46;;;;;;;;;;;;;;;12.90;57.74;101355.25;4946400;28;2092;-93
2022/05/18 11:46:13;;;;;;;;;;;;;;;12.92;57.84;101355.88;4954838;28;1808;-91
2022/05/18 11:48:40;;;;;;;;;;;;;;;12.94;57.95;101368.16;4951171;28;4086;-91
2022/05/18 11:51:06;;;;;;;;;;;;;;;12.97;57.54;101358.78;4976836;28;1883;-92
2022/05/18 11:53:33;;;;;;;;;;;;;;;12.98;57.51;101363.13;4964622;28;1981;-92
2022/05/18 11:56:00;;;;;;;;;;;;;;;13.00;57.50;101361.03;4962080;28;1281;-92
2022/05/18 11:58:41;;;;;;;;;;;;;;;13.01;57.67;101357.28;4946386;28;4842;-91
2022/05/18 12:01:08;;;;;;;;;;;;;;;13.01;57.52;101362.69;4963547;28;1966;-90
2022/05/18 12:03:35;;;;;;;;;;;;;;;13.01;57.39;101360.00;4955710;28;1907;-93
2022/05/18 12:06:01;;;;;;;;;;;;;;;13.00;57.48;101354.78;4957742;28;2167;-92
2022/05/18 12:08:28;;;;;;;;;;;;;;;12.97;57.41;101356.06;4958562;28;2356;-93
2022/05/18 12:10:55;;;;;;;;;;;;;;;12.98;57.45;101357.72;4974024;28;1598;-92
2022/05/18 12:13:22;;;;;;;;;;;;;;;13.01;57.56;101351.88;4974772;28;1723;-92
2022/05/18 12:15:48;;;;;;;;;;;;;;;13.03;57.36;101349.81;4958977;28;2152;-92
2022/05/18 12:18:15;;;;;;;;;;;;;;;13.02;57.53;101356.22;4957047;28;4129;-92
2022/05/18 12:20:41;;;;;;;;;;;;;;;13.04;57.23;101348.75;4974850;28;1911;-92
2022/05/18 12:23:08;;;;;;;;;;;;;;;13.03;57.27;101341.69;4960753;28;2211;-92
2022/05/18 12:25:34;;;;;;;;;;;;;;;13.04;57.26;101334.41;4958002;28;2175;-92
2022/05/18 12:28:01;;;;;;;;;;;;;;;13.04;57.49;101347.91;4952645;28;4940;-92
2022/05/18 12:30:27;;;;;;;;;;;;;;;13.05;57.34;101342.28;4945575;28;4053;-93
2022/05/18 12:32:54;;;;;;;;;;;;;;;13.06;57.33;101330.44;4944659;28;2151;-92
2022/05/18 12:35:21;;;;;;;;;;;;;;;13.07;57.32;101331.25;4951380;28;3965;-92
2022/05/18 12:37:47;;;;;;;;;;;;;;;13.06;57.41;101319.63;4976895;28;2318;-93
2022/05/18 12:40:14;;;;;;;;;;;;;;;13.07;57.32;101315.03;4973790;28;1973;-91
2022/05/18 12:42:40;;;;;;;;;;;;;;;13.08;57.27;101314.81;4971541;28;2096;-92
2022/05/18 12:45:08;;;;;;;;;;;;;;;13.09;57.46;101315.66;4960781;28;1189;-92
2022/05/18 12:47:34;;;;;;;;;;;;;;;13.09;57.22;101315.66;4956434;28;4274;-92
2022/05/18 12:50:01;;;;;;;;;;;;;;;13.09;57.40;101308.38;4971164;28;4391;-92
2022/05/18 12:52:27;;;;;;;;;;;;;;;13.11;57.21;101310.84;4961108;28;1918;-92
2022/05/18 12:54:54;;;;;;;;;;;;;;;13.10;57.17;101307.31;4974171;28;2157;-93
2022/05/18 12:57:20;;;;;;;;;;;;;;;13.10;57.28;101299.19;4957251;28;2220;-91
2022/05/18 12:59:47;;;;;;;;;;;;;;;13.11;57.36;101294.59;4944028;28;2001;-93
2022/05/18 13:02:13;;;;;;;;;;;;;;;13.10;57.06;101296.50;4958672;28;4407;-91